Frej — SBPT — position and weather

sailwx.info

Track history (hours):
 
Tides and Currents Weather Stations Pressure Air Temp Water Temp Dewpoint Dewpoint Depression Visibility Wind Speed Wind Dir Waves Ship Positions

Frej

Last reported at 2017-Nov-18 15:00 UTC. Time now 2017-Nov-18 16:06 UTC.
Position N 65°36' E 022°12'.

Length 108 m; draft 7.2 m.

Type: Other ship. MMSI: 265068000.

Wind from 350 at 6 knots

Barometer 998.6 mb
Air temperature -6.7 ° C

Date/timePositionNaut miles runAvg speedWind from/ knotsBaromVisibWave heightAir tempDewpointWater temp
2017-Nov-18 15:00N 65°36' E 022°12'0 0.0 350 / 6998.6 -6.7
2017-Nov-18 12:00N 65°36' E 022°12'0 0.0 360 / 8997.2 -6.4
2017-Nov-18 09:00N 65°36' E 022°12'0 0.0 340 / 6996.2 -6.1
2017-Nov-18 06:00N 65°36' E 022°12'0 0.0 340 / 10994.4 -5.8
2017-Nov-18 03:00N 65°36' E 022°12'0 0.0 330 / 14993.0 -5.2
2017-Nov-18 00:00N 65°36' E 022°12'0 0.0 320 / 16992.0 -4.8
2017-Nov-17 21:00N 65°36' E 022°12'0 0.0 330 / 16990.9 -4.3
2017-Nov-17 18:00N 65°36' E 022°12'0 0.0 320 / 14989.7 -3.1
2017-Nov-17 15:00N 65°36' E 022°12'0 0.0 010 / 10989.5 -0.2
2017-Nov-17 12:00N 65°36' E 022°12'0 0.0 040 / 4990.2 0.5
2017-Nov-17 09:00N 65°36' E 022°12'0 0.0 110 / 10992.2 1.0
2017-Nov-17 06:00N 65°36' E 022°12'0 0.0 130 / 8994.4 0.7
2017-Nov-17 03:00N 65°36' E 022°12'0 0.0 050 / 4998.3 -3.2
2017-Nov-17 02:00N 65°36' E 022°12'0 0.0 050 / 14999.8 -3.8
2017-Nov-17 01:00N 65°36' E 022°12'0 0.0 070 / 141001.0 -3.4
2017-Nov-17 00:00N 65°36' E 022°12'0 0.0 060 / 121001.9 -3.9
2017-Nov-16 21:00N 65°36' E 022°12'0 0.0 010 / 41004.5 -3.7
2017-Nov-16 19:00N 65°36' E 022°12'0 0.0 180 / 61005.5 -3.8
2017-Nov-16 18:00N 65°36' E 022°12'0 0.0 190 / 41005.4 -4.2
2017-Nov-16 15:00N 65°36' E 022°12'0 0.0 190 / 41006.5 -2.9
2017-Nov-16 12:00N 65°36' E 022°12'0 0.0 210 / 61006.8 -3.1
2017-Nov-16 09:00N 65°36' E 022°12'0 0.0 340 / 41006.9 -6.2
2017-Nov-16 07:00N 65°36' E 022°12'0 0.0 340 / 41006.8 -7.7
2017-Nov-16 06:00N 65°36' E 022°12'0 0.0 340 / 41006.2 -7.9
2017-Nov-16 05:00N 65°36' E 022°12'0 0.0 340 / 41006.0 -9.4
2017-Nov-16 04:00N 65°36' E 022°12'0 0.0 340 / 41006.2 -10.0
2017-Nov-16 03:00N 65°36' E 022°12'0 0.0 340 / 41005.5 -10.2
2017-Nov-16 00:00N 65°36' E 022°12'0 0.0 340 / 41003.5 -10.8
2017-Nov-15 23:00N 65°36' E 022°12'0 0.0 340 / 41003.1 -10.8
2017-Nov-15 21:00N 65°36' E 022°12'0 0.0 340 / 41002.2 -9.2
2017-Nov-15 19:00N 65°36' E 022°12'0 0.0 340 / 41001.4 -10.5
2017-Nov-15 18:00N 65°36' E 022°12'0 0.0 340 / 41001.3 -9.4
2017-Nov-15 15:00N 65°36' E 022°12'0 0.0 300 / 61001.1 -6.9
2017-Nov-15 13:00N 65°36' E 022°12'0 0.0 220 / 21000.9 -5.3
2017-Nov-15 12:00N 65°36' E 022°12'0 0.0 300 / 41001.1 -5.8
2017-Nov-15 11:00N 65°36' E 022°12'0 0.0 260 / 41001.3 -5.9
2017-Nov-15 10:00N 65°36' E 022°12'0 0.0 350 / 41000.9 -6.8
2017-Nov-15 09:00N 65°36' E 022°12'0 0.0 330 / 41001.4 -6.5
2017-Nov-15 08:00N 65°36' E 022°12'0 0.0 350 / 21001.1 -6.5
2017-Nov-15 07:00N 65°36' E 022°12'0 0.0 220 / 21001.0 -6.3
2017-Nov-15 06:00N 65°36' E 022°12'0 0.0 280 / 21001.0 -6.1
2017-Nov-15 05:00N 65°36' E 022°12'0 0.0 180 1000.9 -6.7
2017-Nov-15 03:00N 65°36' E 022°12'0 0.0 230 / 21001.3 -5.6
2017-Nov-15 01:00N 65°36' E 022°12'0 0.0 290 / 21001.7 -6.0
2017-Nov-15 00:00N 65°36' E 022°12'0 0.0 200 / 41001.7 -5.4
2017-Nov-14 22:00N 65°36' E 022°12'0 0.0 340 / 41001.5 -4.2
2017-Nov-14 21:00N 65°36' E 022°12'0 0.0 280 / 21001.6 -4.2
2017-Nov-14 20:00N 65°36' E 022°12'0 0.0 260 / 21001.5 -4.0
2017-Nov-14 19:00N 65°36' E 022°12'0 0.0 300 / 41001.4 -3.2
2017-Nov-14 18:00N 65°36' E 022°12'0 0.0 310 / 61001.3 -2.5
2017-Nov-14 17:00N 65°36' E 022°12'0 0.0 310 / 81001.1 -2.5
2017-Nov-14 16:00N 65°36' E 022°12'0 0.0 310 / 61001.1 -2.2
2017-Nov-14 15:00N 65°36' E 022°12'0 0.0 290 / 41001.1 -2.6
2017-Nov-14 14:00N 65°36' E 022°12'0 0.0 300 / 41001.0 -2.3
2017-Nov-14 11:00N 65°36' E 022°12'0 0.0 320 / 61000.9 -2.1
2017-Nov-14 10:00N 65°36' E 022°12'0 0.0 320 / 61000.9 -2.2
2017-Nov-14 09:00N 65°36' E 022°12'0 0.0 310 / 61000.8 -2.2
2017-Nov-14 07:00N 65°36' E 022°12'0 0.0 320 / 81000.6 -2.1
2017-Nov-14 06:00N 65°36' E 022°12'0 0.0 320 / 61000.3 -1.7
2017-Nov-14 04:00N 65°36' E 022°12'0 0.0 350 / 41000.7 -2.2
2017-Nov-14 03:00N 65°36' E 022°12'0 0.0 320 / 61000.7 -2.1
2017-Nov-14 02:00N 65°36' E 022°12'0 0.0 300 / 61001.0 -2.2
2017-Nov-14 01:00N 65°36' E 022°12'0 0.0 300 / 81001.0 -2.1
2017-Nov-14 00:00N 65°36' E 022°12'0 0.0 280 / 61001.1 -1.9
2017-Nov-13 23:00N 65°36' E 022°12'0 0.0 300 / 61001.2 -1.8
2017-Nov-13 22:00N 65°36' E 022°12'0 0.0 300 / 61001.4 -2.0
2017-Nov-13 21:00N 65°36' E 022°12'0 0.0 320 / 61001.5 -1.9
2017-Nov-13 20:00N 65°36' E 022°12'0 0.0 310 / 121001.8 -1.8
2017-Nov-13 19:00N 65°36' E 022°12'0 0.0 300 / 81001.7 -1.6
2017-Nov-13 18:00N 65°36' E 022°12'0 0.0 310 / 81001.5 -1.1
2017-Nov-13 17:00N 65°36' E 022°12'0 0.0 300 / 101001.6 -0.4
2017-Nov-13 16:00N 65°36' E 022°12'0 0.0 300 / 81001.5 -0.2
2017-Nov-13 15:00N 65°36' E 022°12'0 0.0 310 / 101001.4 -0.2
2017-Nov-13 14:00N 65°36' E 022°12'0 0.0 310 / 81001.3 -0.1
2017-Nov-13 13:00N 65°36' E 022°12'0 0.0 310 / 101001.1 -0.1
2017-Nov-13 12:00N 65°36' E 022°12'0 0.0 300 / 101001.1 -0.0
2017-Nov-13 09:00N 65°36' E 022°12'0 0.0 310 / 121000.2 -0.2
2017-Nov-13 08:00N 65°36' E 022°12'0 0.0 310 / 10100.0 -0.1
2017-Nov-13 07:00N 65°36' E 022°12'0 0.0 320 / 10999.6 0.1
2017-Nov-13 06:00N 65°36' E 022°12'0 0.0 320 / 10999.1 0.4
2017-Nov-13 05:00N 65°36' E 022°12'0 0.0 330 / 10998.6 0.5
2017-Nov-13 04:00N 65°36' E 022°12'0 0.0 350 / 8998.4 0.8
2017-Nov-13 03:00N 65°36' E 022°12'0 0.0 320 / 10998.1 0.7
2017-Nov-13 02:00N 65°36' E 022°12'0 0.0 340 / 8997.8 0.9
2017-Nov-13 01:00N 65°36' E 022°12'0 0.0 360 / 6997.4 0.9
2017-Nov-13 00:00N 65°36' E 022°12'0 0.0 360 / 6997.0 0.8
2017-Nov-12 23:00N 65°36' E 022°12'0 0.0 996.7 0.8
2017-Nov-12 22:00N 65°36' E 022°12'0 0.0 340 / 6996.2 0.8
2017-Nov-12 21:00N 65°36' E 022°12'0 0.0 350 / 8995.7 0.8
2017-Nov-12 20:00N 65°36' E 022°12'0 0.0 995.3 0.9
2017-Nov-12 19:00N 65°36' E 022°12'0 0.0 030 / 8994.8 1.1
2017-Nov-12 18:00N 65°36' E 022°12'0 0.0 010 / 6994.5 1.3
2017-Nov-12 17:00N 65°36' E 022°12'0 0.0 010 / 8993.9 1.5
2017-Nov-12 16:00N 65°36' E 022°12'0 0.0 020 / 6993.3 1.7
2017-Nov-12 15:00N 65°36' E 022°12'0 0.0 040 / 6992.9 1.7
2017-Nov-12 14:00N 65°36' E 022°12'0 0.0 030 / 4992.3 1.7
2017-Nov-12 13:00N 65°36' E 022°12'0 0.0 050 / 4991.8 1.8
2017-Nov-12 12:00N 65°36' E 022°12'0 0.0 050 / 6991.3 2.5
2017-Nov-12 11:00N 65°36' E 022°12'0 0.0 080 / 2990.9 2.7
2017-Nov-12 10:00N 65°36' E 022°12'0 0.0 120 / 6990.5 2.7
2017-Nov-12 09:00N 65°36' E 022°12'0 0.0 060 / 4990.1 1.7
2017-Nov-12 08:00N 65°36' E 022°12'0 0.0 040 / 4989.4 0.8
2017-Nov-12 07:00N 65°36' E 022°12'0 0.0 010 / 8989.0 0.4
2017-Nov-12 06:00N 65°36' E 022°12'0 0.0 020 / 8988.8 0.1
2017-Nov-12 05:00N 65°36' E 022°12'0 0.0 010 / 14988.6 0.4
2017-Nov-12 04:00N 65°36' E 022°12'0 0.0 010 / 16988.9 0.5
2017-Nov-12 03:00N 65°36' E 022°12'0 0.0 010 / 14989.3 1.0
2017-Nov-12 02:00N 65°36' E 022°12'0 0.0 350 / 10990.1 1.4
2017-Nov-12 01:00N 65°36' E 022°12'0 0.0 030 / 12990.6 1.4
2017-Nov-12 00:00N 65°36' E 022°12'0 0.0 020 / 12991.3 1.5
2017-Nov-11 23:00N 65°36' E 022°12'0 0.0 020 / 8991.7 1.8
2017-Nov-11 22:00N 65°36' E 022°12'0 0.0 100 / 6992.2 2.4
2017-Nov-11 21:00N 65°36' E 022°12'0 0.0 060 / 4992.6 2.6
2017-Nov-11 20:00N 65°36' E 022°12'0 0.0 070 / 2993.0 2.1
2017-Nov-11 19:00N 65°36' E 022°12'0 0.0 040 / 4993.3 2.0
2017-Nov-11 18:00N 65°36' E 022°12'0 0.0 040 / 4993.4 1.9
2017-Nov-11 17:00N 65°36' E 022°12'0 0.0 070 993.5 2.2
2017-Nov-11 16:00N 65°36' E 022°12'0 0.0 130 / 4993.6 2.7
2017-Nov-11 15:00N 65°36' E 022°12'0 0.0 150 / 6993.8 2.9
2017-Nov-11 14:00N 65°36' E 022°12'0 0.0 140 / 6993.9 2.5
2017-Nov-11 13:00N 65°36' E 022°12'0 0.0 340 / 4993.7 0.1
2017-Nov-11 12:00N 65°36' E 022°12'0 0.0 140 / 2993.6 0.9
2017-Nov-11 11:00N 65°36' E 022°12'0 0.0 340 / 2993.6 0.5
2017-Nov-11 10:00N 65°36' E 022°12'0 0.0 150 / 6993.4 2.1
2017-Nov-11 09:00N 65°36' E 022°12'0 0.0 150 / 6993.1 1.2
2017-Nov-11 08:00N 65°36' E 022°12'0 0.0 160 / 2993.0 0.8
2017-Nov-11 07:00N 65°36' E 022°12'0 0.0 180 / 6992.8 0.7
2017-Nov-11 06:00N 65°36' E 022°12'0 0.0 180 / 4992.7 -0.5
2017-Nov-11 05:00N 65°36' E 022°12'0 0.0 170 / 2992.5 -0.1
2017-Nov-11 03:00N 65°36' E 022°12'0 0.0 180 / 8992.3 0.7
2017-Nov-11 01:00N 65°36' E 022°12'0 0.0 180 / 8992.0 0.1
2017-Nov-11 00:00N 65°36' E 022°12'0 0.0 200 / 8991.8 0.3
2017-Nov-10 21:00N 65°36' E 022°12'0 0.0 190 / 6991.4 0.5
2017-Nov-10 20:00N 65°36' E 022°12'0 0.0 190 / 10991.3 1.0
2017-Nov-10 18:00N 65°36' E 022°12'0 0.0 210 / 10990.9 1.5
2017-Nov-10 15:00N 65°36' E 022°12'0 0.0 210 / 8990.2 1.4
2017-Nov-10 14:00N 65°36' E 022°12'0 0.0 200 / 12989.7 1.6
2017-Nov-10 12:00N 65°36' E 022°12'0 0.0 210 / 10989.3 2.6
2017-Nov-10 11:00N 65°36' E 022°12'0 0.0 220 / 8988.7 2.5
2017-Nov-10 10:00N 65°36' E 022°12'0 0.0 210 / 8988.4 2.7
2017-Nov-10 09:00N 65°36' E 022°12'0 0.0 210 / 6987.8 2.0
2017-Nov-10 07:00N 65°36' E 022°12'0 0.0 200 / 10986.7 1.5
2017-Nov-10 06:00N 65°36' E 022°12'0 0.0 200 / 10986.7 1.5
2017-Nov-10 05:00N 65°36' E 022°12'0 0.0 190 / 10986.4 1.8
2017-Nov-10 03:00N 65°36' E 022°12'0 0.0 190 / 8987.1 1.9
2017-Nov-10 01:00N 65°36' E 022°12'0 0.0 230 / 12987.5 2.6
2017-Nov-10 00:00N 65°36' E 022°12'0 0.0 190 / 12987.1 2.8
2017-Nov-09 23:00N 65°36' E 022°12'0 0.0 210 / 12986.6 2.8
2017-Nov-09 22:00N 65°36' E 022°12'0 0.0 230 / 12986.8 3.5
2017-Nov-09 21:00N 65°36' E 022°12'0 0.0 220 / 10986.8 4.1
2017-Nov-09 18:00N 65°36' E 022°12'0 0.0 190 / 16988.7 4.7
2017-Nov-09 17:00N 65°36' E 022°12'0 0.0 190 / 23989.7 4.5
2017-Nov-09 15:00N 65°36' E 022°12'0 0.0 190 / 19991.9 4.5
2017-Nov-09 12:00N 65°36' E 022°12'0 0.0 200 / 25996.0 5.0
2017-Nov-09 09:00N 65°36' E 022°12'0 0.0 200 / 23999.6 4.4
2017-Nov-09 08:00N 65°36' E 022°12'0 0.0 200 / 251001.0 4.6
2017-Nov-09 07:00N 65°36' E 022°12'0 0.0 200 / 141002.7 3.5
2017-Nov-09 06:00N 65°36' E 022°12'0 0.0 190 / 211004.1 3.0
2017-Nov-09 05:00N 65°36' E 022°12'0 0.0 200 / 191005.1 2.9
2017-Nov-09 04:00N 65°36' E 022°12'0 0.0 180 / 141005.9 3.2
2017-Nov-09 03:00N 65°36' E 022°12'0 0.0 200 / 121007.5 2.8
2017-Nov-09 02:00N 65°36' E 022°12'0 0.0 190 / 141008.1 2.2
2017-Nov-09 01:00N 65°36' E 022°12'0 0.0 200 / 121009.1 2.1
2017-Nov-09 00:00N 65°36' E 022°12'0 0.0 190 / 101009.4 1.8
2017-Nov-08 23:00N 65°36' E 022°12'0 0.0 210 / 81010.1 1.6
2017-Nov-08 22:00N 65°36' E 022°12'0 0.0 230 / 61010.4 1.6
2017-Nov-08 21:00N 65°36' E 022°12'0 0.0 200 / 61010.6 1.7
2017-Nov-08 20:00N 65°36' E 022°12'0 0.0 210 / 81010.8 1.7
2017-Nov-08 19:00N 65°36' E 022°12'0 0.0 220 / 81011.3 2.0
2017-Nov-08 18:00N 65°36' E 022°12'0 0.0 220 / 101011.5 2.3
2017-Nov-08 17:00N 65°36' E 022°12'0 0.0 240 / 101012.0 2.1
2017-Nov-08 15:00N 65°36' E 022°12'   210 / 121012.9 2.3
Track history (hours):
 
Tides and Currents Weather Stations Pressure Air Temp Water Temp Dewpoint Dewpoint Depression Visibility Wind Speed Wind Dir Waves Ship Positions

Frej

Last reported at 2017-Nov-18 15:00 UTC. Time now 2017-Nov-18 16:06 UTC.
Position N 65°36' E 022°12'.

Length 108 m; draft 7.2 m.

Type: Other ship. MMSI: 265068000.

Wind from 350 at 6 knots

Barometer 998.6 mb
Air temperature -6.7 ° C

Date/timePositionNaut miles runAvg speedWind from/ knotsBaromVisibWave heightAir tempDewpointWater temp
2017-Nov-18 15:00N 65°36' E 022°12'0 0.0 350 / 6998.6 -6.7
2017-Nov-18 12:00N 65°36' E 022°12'0 0.0 360 / 8997.2 -6.4
2017-Nov-18 09:00N 65°36' E 022°12'0 0.0 340 / 6996.2 -6.1
2017-Nov-18 06:00N 65°36' E 022°12'0 0.0 340 / 10994.4 -5.8
2017-Nov-18 03:00N 65°36' E 022°12'0 0.0 330 / 14993.0 -5.2
2017-Nov-18 00:00N 65°36' E 022°12'0 0.0 320 / 16992.0 -4.8
2017-Nov-17 21:00N 65°36' E 022°12'0 0.0 330 / 16990.9 -4.3
2017-Nov-17 18:00N 65°36' E 022°12'0 0.0 320 / 14989.7 -3.1
2017-Nov-17 15:00N 65°36' E 022°12'0 0.0 010 / 10989.5 -0.2
2017-Nov-17 12:00N 65°36' E 022°12'0 0.0 040 / 4990.2 0.5
2017-Nov-17 09:00N 65°36' E 022°12'0 0.0 110 / 10992.2 1.0
2017-Nov-17 06:00N 65°36' E 022°12'0 0.0 130 / 8994.4 0.7
2017-Nov-17 03:00N 65°36' E 022°12'0 0.0 050 / 4998.3 -3.2
2017-Nov-17 02:00N 65°36' E 022°12'0 0.0 050 / 14999.8 -3.8
2017-Nov-17 01:00N 65°36' E 022°12'0 0.0 070 / 141001.0 -3.4
2017-Nov-17 00:00N 65°36' E 022°12'0 0.0 060 / 121001.9 -3.9
2017-Nov-16 21:00N 65°36' E 022°12'0 0.0 010 / 41004.5 -3.7
2017-Nov-16 19:00N 65°36' E 022°12'0 0.0 180 / 61005.5 -3.8
2017-Nov-16 18:00N 65°36' E 022°12'0 0.0 190 / 41005.4 -4.2
2017-Nov-16 15:00N 65°36' E 022°12'0 0.0 190 / 41006.5 -2.9
2017-Nov-16 12:00N 65°36' E 022°12'0 0.0 210 / 61006.8 -3.1
2017-Nov-16 09:00N 65°36' E 022°12'0 0.0 340 / 41006.9 -6.2
2017-Nov-16 07:00N 65°36' E 022°12'0 0.0 340 / 41006.8 -7.7
2017-Nov-16 06:00N 65°36' E 022°12'0 0.0 340 / 41006.2 -7.9
2017-Nov-16 05:00N 65°36' E 022°12'0 0.0 340 / 41006.0 -9.4
2017-Nov-16 04:00N 65°36' E 022°12'0 0.0 340 / 41006.2 -10.0
2017-Nov-16 03:00N 65°36' E 022°12'0 0.0 340 / 41005.5 -10.2
2017-Nov-16 00:00N 65°36' E 022°12'0 0.0 340 / 41003.5 -10.8
2017-Nov-15 23:00N 65°36' E 022°12'0 0.0 340 / 41003.1 -10.8
2017-Nov-15 21:00N 65°36' E 022°12'0 0.0 340 / 41002.2 -9.2
2017-Nov-15 19:00N 65°36' E 022°12'0 0.0 340 / 41001.4 -10.5
2017-Nov-15 18:00N 65°36' E 022°12'0 0.0 340 / 41001.3 -9.4
2017-Nov-15 15:00N 65°36' E 022°12'0 0.0 300 / 61001.1 -6.9
2017-Nov-15 13:00N 65°36' E 022°12'0 0.0 220 / 21000.9 -5.3
2017-Nov-15 12:00N 65°36' E 022°12'0 0.0 300 / 41001.1 -5.8
2017-Nov-15 11:00N 65°36' E 022°12'0 0.0 260 / 41001.3 -5.9
2017-Nov-15 10:00N 65°36' E 022°12'0 0.0 350 / 41000.9 -6.8
2017-Nov-15 09:00N 65°36' E 022°12'0 0.0 330 / 41001.4 -6.5
2017-Nov-15 08:00N 65°36' E 022°12'0 0.0 350 / 21001.1 -6.5
2017-Nov-15 07:00N 65°36' E 022°12'0 0.0 220 / 21001.0 -6.3
2017-Nov-15 06:00N 65°36' E 022°12'0 0.0 280 / 21001.0 -6.1
2017-Nov-15 05:00N 65°36' E 022°12'0 0.0 180 1000.9 -6.7
2017-Nov-15 03:00N 65°36' E 022°12'0 0.0 230 / 21001.3 -5.6
2017-Nov-15 01:00N 65°36' E 022°12'0 0.0 290 / 21001.7 -6.0
2017-Nov-15 00:00N 65°36' E 022°12'0 0.0 200 / 41001.7 -5.4
2017-Nov-14 22:00N 65°36' E 022°12'0 0.0 340 / 41001.5 -4.2
2017-Nov-14 21:00N 65°36' E 022°12'0 0.0 280 / 21001.6 -4.2
2017-Nov-14 20:00N 65°36' E 022°12'0 0.0 260 / 21001.5 -4.0
2017-Nov-14 19:00N 65°36' E 022°12'0 0.0 300 / 41001.4 -3.2
2017-Nov-14 18:00N 65°36' E 022°12'0 0.0 310 / 61001.3 -2.5
2017-Nov-14 17:00N 65°36' E 022°12'0 0.0 310 / 81001.1 -2.5
2017-Nov-14 16:00N 65°36' E 022°12'0 0.0 310 / 61001.1 -2.2
2017-Nov-14 15:00N 65°36' E 022°12'0 0.0 290 / 41001.1 -2.6
2017-Nov-14 14:00N 65°36' E 022°12'0 0.0 300 / 41001.0 -2.3
2017-Nov-14 11:00N 65°36' E 022°12'0 0.0 320 / 61000.9 -2.1
2017-Nov-14 10:00N 65°36' E 022°12'0 0.0 320 / 61000.9 -2.2
2017-Nov-14 09:00N 65°36' E 022°12'0 0.0 310 / 61000.8 -2.2
2017-Nov-14 07:00N 65°36' E 022°12'0 0.0 320 / 81000.6 -2.1
2017-Nov-14 06:00N 65°36' E 022°12'0 0.0 320 / 61000.3 -1.7
2017-Nov-14 04:00N 65°36' E 022°12'0 0.0 350 / 41000.7 -2.2
2017-Nov-14 03:00N 65°36' E 022°12'0 0.0 320 / 61000.7 -2.1
2017-Nov-14 02:00N 65°36' E 022°12'0 0.0 300 / 61001.0 -2.2
2017-Nov-14 01:00N 65°36' E 022°12'0 0.0 300 / 81001.0 -2.1
2017-Nov-14 00:00N 65°36' E 022°12'0 0.0 280 / 61001.1 -1.9
2017-Nov-13 23:00N 65°36' E 022°12'0 0.0 300 / 61001.2 -1.8
2017-Nov-13 22:00N 65°36' E 022°12'0 0.0 300 / 61001.4 -2.0
2017-Nov-13 21:00N 65°36' E 022°12'0 0.0 320 / 61001.5 -1.9
2017-Nov-13 20:00N 65°36' E 022°12'0 0.0 310 / 121001.8 -1.8
2017-Nov-13 19:00N 65°36' E 022°12'0 0.0 300 / 81001.7 -1.6
2017-Nov-13 18:00N 65°36' E 022°12'0 0.0 310 / 81001.5 -1.1
2017-Nov-13 17:00N 65°36' E 022°12'0 0.0 300 / 101001.6 -0.4
2017-Nov-13 16:00N 65°36' E 022°12'0 0.0 300 / 81001.5 -0.2
2017-Nov-13 15:00N 65°36' E 022°12'0 0.0 310 / 101001.4 -0.2
2017-Nov-13 14:00N 65°36' E 022°12'0 0.0 310 / 81001.3 -0.1
2017-Nov-13 13:00N 65°36' E 022°12'0 0.0 310 / 101001.1 -0.1
2017-Nov-13 12:00N 65°36' E 022°12'0 0.0 300 / 101001.1 -0.0
2017-Nov-13 09:00N 65°36' E 022°12'0 0.0 310 / 121000.2 -0.2
2017-Nov-13 08:00N 65°36' E 022°12'0 0.0 310 / 10100.0 -0.1
2017-Nov-13 07:00N 65°36' E 022°12'0 0.0 320 / 10999.6 0.1
2017-Nov-13 06:00N 65°36' E 022°12'0 0.0 320 / 10999.1 0.4
2017-Nov-13 05:00N 65°36' E 022°12'0 0.0 330 / 10998.6 0.5
2017-Nov-13 04:00N 65°36' E 022°12'0 0.0 350 / 8998.4 0.8
2017-Nov-13 03:00N 65°36' E 022°12'0 0.0 320 / 10998.1 0.7
2017-Nov-13 02:00N 65°36' E 022°12'0 0.0 340 / 8997.8 0.9
2017-Nov-13 01:00N 65°36' E 022°12'0 0.0 360 / 6997.4 0.9
2017-Nov-13 00:00N 65°36' E 022°12'0 0.0 360 / 6997.0 0.8
2017-Nov-12 23:00N 65°36' E 022°12'0 0.0 996.7 0.8
2017-Nov-12 22:00N 65°36' E 022°12'0 0.0 340 / 6996.2 0.8
2017-Nov-12 21:00N 65°36' E 022°12'0 0.0 350 / 8995.7 0.8
2017-Nov-12 20:00N 65°36' E 022°12'0 0.0 995.3 0.9
2017-Nov-12 19:00N 65°36' E 022°12'0 0.0 030 / 8994.8 1.1
2017-Nov-12 18:00N 65°36' E 022°12'0 0.0 010 / 6994.5 1.3
2017-Nov-12 17:00N 65°36' E 022°12'0 0.0 010 / 8993.9 1.5
2017-Nov-12 16:00N 65°36' E 022°12'0 0.0 020 / 6993.3 1.7
2017-Nov-12 15:00N 65°36' E 022°12'0 0.0 040 / 6992.9 1.7
2017-Nov-12 14:00N 65°36' E 022°12'0 0.0 030 / 4992.3 1.7
2017-Nov-12 13:00N 65°36' E 022°12'0 0.0 050 / 4991.8 1.8
2017-Nov-12 12:00N 65°36' E 022°12'0 0.0 050 / 6991.3 2.5
2017-Nov-12 11:00N 65°36' E 022°12'0 0.0 080 / 2990.9 2.7
2017-Nov-12 10:00N 65°36' E 022°12'0 0.0 120 / 6990.5 2.7
2017-Nov-12 09:00N 65°36' E 022°12'0 0.0 060 / 4990.1 1.7
2017-Nov-12 08:00N 65°36' E 022°12'0 0.0 040 / 4989.4 0.8
2017-Nov-12 07:00N 65°36' E 022°12'0 0.0 010 / 8989.0 0.4
2017-Nov-12 06:00N 65°36' E 022°12'0 0.0 020 / 8988.8 0.1
2017-Nov-12 05:00N 65°36' E 022°12'0 0.0 010 / 14988.6 0.4
2017-Nov-12 04:00N 65°36' E 022°12'0 0.0 010 / 16988.9 0.5
2017-Nov-12 03:00N 65°36' E 022°12'0 0.0 010 / 14989.3 1.0
2017-Nov-12 02:00N 65°36' E 022°12'0 0.0 350 / 10990.1 1.4
2017-Nov-12 01:00N 65°36' E 022°12'0 0.0 030 / 12990.6 1.4
2017-Nov-12 00:00N 65°36' E 022°12'0 0.0 020 / 12991.3 1.5
2017-Nov-11 23:00N 65°36' E 022°12'0 0.0 020 / 8991.7 1.8
2017-Nov-11 22:00N 65°36' E 022°12'0 0.0 100 / 6992.2 2.4
2017-Nov-11 21:00N 65°36' E 022°12'0 0.0 060 / 4992.6 2.6
2017-Nov-11 20:00N 65°36' E 022°12'0 0.0 070 / 2993.0 2.1
2017-Nov-11 19:00N 65°36' E 022°12'0 0.0 040 / 4993.3 2.0
2017-Nov-11 18:00N 65°36' E 022°12'0 0.0 040 / 4993.4 1.9
2017-Nov-11 17:00N 65°36' E 022°12'0 0.0 070 993.5 2.2
2017-Nov-11 16:00N 65°36' E 022°12'0 0.0 130 / 4993.6 2.7
2017-Nov-11 15:00N 65°36' E 022°12'0 0.0 150 / 6993.8 2.9
2017-Nov-11 14:00N 65°36' E 022°12'0 0.0 140 / 6993.9 2.5
2017-Nov-11 13:00N 65°36' E 022°12'0 0.0 340 / 4993.7 0.1
2017-Nov-11 12:00N 65°36' E 022°12'0 0.0 140 / 2993.6 0.9
2017-Nov-11 11:00N 65°36' E 022°12'0 0.0 340 / 2993.6 0.5
2017-Nov-11 10:00N 65°36' E 022°12'0 0.0 150 / 6993.4 2.1
2017-Nov-11 09:00N 65°36' E 022°12'0 0.0 150 / 6993.1 1.2
2017-Nov-11 08:00N 65°36' E 022°12'0 0.0 160 / 2993.0 0.8
2017-Nov-11 07:00N 65°36' E 022°12'0 0.0 180 / 6992.8 0.7
2017-Nov-11 06:00N 65°36' E 022°12'0 0.0 180 / 4992.7 -0.5
2017-Nov-11 05:00N 65°36' E 022°12'0 0.0 170 / 2992.5 -0.1
2017-Nov-11 03:00N 65°36' E 022°12'0 0.0 180 / 8992.3 0.7
2017-Nov-11 01:00N 65°36' E 022°12'0 0.0 180 / 8992.0 0.1
2017-Nov-11 00:00N 65°36' E 022°12'0 0.0 200 / 8991.8 0.3
2017-Nov-10 21:00N 65°36' E 022°12'0 0.0 190 / 6991.4 0.5
2017-Nov-10 20:00N 65°36' E 022°12'0 0.0 190 / 10991.3 1.0
2017-Nov-10 18:00N 65°36' E 022°12'0 0.0 210 / 10990.9 1.5
2017-Nov-10 15:00N 65°36' E 022°12'0 0.0 210 / 8990.2 1.4
2017-Nov-10 14:00N 65°36' E 022°12'0 0.0 200 / 12989.7 1.6
2017-Nov-10 12:00N 65°36' E 022°12'0 0.0 210 / 10989.3 2.6
2017-Nov-10 11:00N 65°36' E 022°12'0 0.0 220 / 8988.7 2.5
2017-Nov-10 10:00N 65°36' E 022°12'0 0.0 210 / 8988.4 2.7
2017-Nov-10 09:00N 65°36' E 022°12'0 0.0 210 / 6987.8 2.0
2017-Nov-10 07:00N 65°36' E 022°12'0 0.0 200 / 10986.7 1.5
2017-Nov-10 06:00N 65°36' E 022°12'0 0.0 200 / 10986.7 1.5
2017-Nov-10 05:00N 65°36' E 022°12'0 0.0 190 / 10986.4 1.8
2017-Nov-10 03:00N 65°36' E 022°12'0 0.0 190 / 8987.1 1.9
2017-Nov-10 01:00N 65°36' E 022°12'0 0.0 230 / 12987.5 2.6
2017-Nov-10 00:00N 65°36' E 022°12'0 0.0 190 / 12987.1 2.8
2017-Nov-09 23:00N 65°36' E 022°12'0 0.0 210 / 12986.6 2.8
2017-Nov-09 22:00N 65°36' E 022°12'0 0.0 230 / 12986.8 3.5
2017-Nov-09 21:00N 65°36' E 022°12'0 0.0 220 / 10986.8 4.1
2017-Nov-09 18:00N 65°36' E 022°12'0 0.0 190 / 16988.7 4.7
2017-Nov-09 17:00N 65°36' E 022°12'0 0.0 190 / 23989.7 4.5
2017-Nov-09 15:00N 65°36' E 022°12'0 0.0 190 / 19991.9 4.5
2017-Nov-09 12:00N 65°36' E 022°12'0 0.0 200 / 25996.0 5.0
2017-Nov-09 09:00N 65°36' E 022°12'0 0.0 200 / 23999.6 4.4
2017-Nov-09 08:00N 65°36' E 022°12'0 0.0 200 / 251001.0 4.6
2017-Nov-09 07:00N 65°36' E 022°12'0 0.0 200 / 141002.7 3.5
2017-Nov-09 06:00N 65°36' E 022°12'0 0.0 190 / 211004.1 3.0
2017-Nov-09 05:00N 65°36' E 022°12'0 0.0 200 / 191005.1 2.9
2017-Nov-09 04:00N 65°36' E 022°12'0 0.0 180 / 141005.9 3.2
2017-Nov-09 03:00N 65°36' E 022°12'0 0.0 200 / 121007.5 2.8
2017-Nov-09 02:00N 65°36' E 022°12'0 0.0 190 / 141008.1 2.2
2017-Nov-09 01:00N 65°36' E 022°12'0 0.0 200 / 121009.1 2.1
2017-Nov-09 00:00N 65°36' E 022°12'0 0.0 190 / 101009.4 1.8
2017-Nov-08 23:00N 65°36' E 022°12'0 0.0 210 / 81010.1 1.6
2017-Nov-08 22:00N 65°36' E 022°12'0 0.0 230 / 61010.4 1.6
2017-Nov-08 21:00N 65°36' E 022°12'0 0.0 200 / 61010.6 1.7
2017-Nov-08 20:00N 65°36' E 022°12'0 0.0 210 / 81010.8 1.7
2017-Nov-08 19:00N 65°36' E 022°12'0 0.0 220 / 81011.3 2.0
2017-Nov-08 18:00N 65°36' E 022°12'0 0.0 220 / 101011.5 2.3
2017-Nov-08 17:00N 65°36' E 022°12'0 0.0 240 / 101012.0 2.1
2017-Nov-08 15:00N 65°36' E 022°12'   210 / 121012.9 2.3

Dump ship's entire track history